createdAt,value
2022-11-09T00:00:07.089Z,3.78
2022-11-09T00:00:19.582Z,4.25
2022-11-09T00:00:31.511Z,5.40
2022-11-09T00:00:44.296Z,6.47
2022-11-09T00:01:01.298Z,5.57
2022-11-09T00:01:13.225Z,4.05
2022-11-09T00:01:27.351Z,4.65
2022-11-09T00:01:39.546Z,6.43
2022-11-09T00:01:51.546Z,6.30
2022-11-09T00:02:05.376Z,4.43
2022-11-09T00:02:17.284Z,4.18
2022-11-09T00:02:29.203Z,4.13
2022-11-09T00:02:43.975Z,3.97
2022-11-09T00:02:56.043Z,4.28
2022-11-09T00:03:08.092Z,5.30
2022-11-09T00:03:20.345Z,5.82
2022-11-09T00:03:32.627Z,6.10
2022-11-09T00:03:44.765Z,8.05
2022-11-09T00:04:01.946Z,9.80
2022-11-09T00:04:13.888Z,14.15
2022-11-09T00:04:25.812Z,13.48
2022-11-09T00:04:37.713Z,9.45
2022-11-09T00:04:49.686Z,8.35
2022-11-09T00:05:01.638Z,8.45
2022-11-09T00:05:13.555Z,7.75
2022-11-09T00:05:25.456Z,8.20
2022-11-09T00:05:37.964Z,8.85
2022-11-09T00:05:57.086Z,10.38
2022-11-09T00:06:09.215Z,13.90
2022-11-09T00:06:21.160Z,14.40
2022-11-09T00:06:34.003Z,13.18
2022-11-09T00:06:46.013Z,10.85
2022-11-09T00:06:58.052Z,9.65
2022-11-09T00:07:10.130Z,8.30
2022-11-09T00:07:22.201Z,8.73
2022-11-09T00:07:34.132Z,7.47
2022-11-09T00:07:46.086Z,8.63
2022-11-09T00:07:57.993Z,8.57
2022-11-09T00:08:11.446Z,7.85
2022-11-09T00:08:23.439Z,9.50
2022-11-09T00:08:37.691Z,9.55
2022-11-09T00:08:49.696Z,10.35
2022-11-09T00:09:07.431Z,9.00
2022-11-09T00:09:19.922Z,7.72
2022-11-09T00:09:31.934Z,8.77
2022-11-09T00:09:43.923Z,8.48
2022-11-09T00:09:55.922Z,6.88
2022-11-09T00:10:08.242Z,6.33
2022-11-09T00:10:20.267Z,6.32
2022-11-09T00:10:33.102Z,6.20
2022-11-09T00:10:45.037Z,6.00
2022-11-09T00:11:03.751Z,6.00
2022-11-09T00:11:16.069Z,6.13
2022-11-09T00:11:28.053Z,6.78
2022-11-09T00:11:39.958Z,6.63
2022-11-09T00:11:53.870Z,6.53
2022-11-09T00:12:07.402Z,7.57
2022-11-09T00:12:19.347Z,7.93
2022-11-09T00:12:31.263Z,7.57
2022-11-09T00:12:43.168Z,7.22
2022-11-09T00:12:55.067Z,7.18
2022-11-09T00:13:07.001Z,7.60
2022-11-09T00:13:19.234Z,6.78
2022-11-09T00:13:31.808Z,6.45
2022-11-09T00:13:44.952Z,6.03
2022-11-09T00:13:56.924Z,7.30
2022-11-09T00:14:14.288Z,7.85
2022-11-09T00:14:26.214Z,6.95
2022-11-09T00:14:38.745Z,6.88
2022-11-09T00:14:50.674Z,6.95
2022-11-09T00:15:02.613Z,7.00
2022-11-09T00:15:14.548Z,7.45
2022-11-09T00:15:26.462Z,8.57
2022-11-09T00:15:38.366Z,6.80
2022-11-09T00:15:50.399Z,6.70
2022-11-09T00:16:02.363Z,7.55
2022-11-09T00:16:16.760Z,7.78
2022-11-09T00:16:28.873Z,7.47
2022-11-09T00:16:40.882Z,6.80
2022-11-09T00:16:52.820Z,7.22
2022-11-09T00:17:04.910Z,7.40
2022-11-09T00:17:16.855Z,8.60
2022-11-09T00:17:28.773Z,7.70
2022-11-09T00:17:40.678Z,7.75
2022-11-09T00:17:52.592Z,7.15
2022-11-09T00:18:04.554Z,6.95
2022-11-09T00:18:16.472Z,8.03
2022-11-09T00:18:29.631Z,8.05
2022-11-09T00:18:47.253Z,8.55
2022-11-09T00:18:59.329Z,8.00
2022-11-09T00:19:13.197Z,9.57
2022-11-09T00:19:25.160Z,12.23
2022-11-09T00:19:37.157Z,11.10
2022-11-09T00:19:49.048Z,10.25
2022-11-09T00:20:00.967Z,11.63
2022-11-09T00:20:12.949Z,12.35
2022-11-09T00:20:24.859Z,12.38
2022-11-09T00:20:36.780Z,11.38
2022-11-09T00:20:48.831Z,11.80
2022-11-09T00:21:08.839Z,13.15
2022-11-09T00:21:23.215Z,17.08
2022-11-09T00:21:35.239Z,15.93
2022-11-09T00:21:47.222Z,13.88
2022-11-09T00:21:59.147Z,16.92
2022-11-09T00:22:11.144Z,15.10
2022-11-09T00:22:23.068Z,12.45
2022-11-09T00:22:35.008Z,12.40
2022-11-09T00:22:50.275Z,13.98
2022-11-09T00:23:02.213Z,12.75
2022-11-09T00:23:14.233Z,12.05
2022-11-09T00:23:26.156Z,11.32
2022-11-09T00:23:38.355Z,11.98
2022-11-09T00:23:51.092Z,13.43
2022-11-09T00:24:03.135Z,12.82
2022-11-09T00:24:15.257Z,12.23
2022-11-09T00:24:27.144Z,9.50
2022-11-09T00:24:39.080Z,8.55
2022-11-09T00:24:51.019Z,8.77
2022-11-09T00:25:02.942Z,9.83
2022-11-09T00:25:15.296Z,10.52
2022-11-09T00:25:27.251Z,12.00
2022-11-09T00:25:39.177Z,12.43
2022-11-09T00:25:51.152Z,11.25
2022-11-09T00:26:05.066Z,10.70
2022-11-09T00:26:18.588Z,9.48
2022-11-09T00:26:30.510Z,10.52
2022-11-09T00:26:42.818Z,10.73
2022-11-09T00:26:54.764Z,11.07
2022-11-09T00:27:06.679Z,10.75
2022-11-09T00:27:18.588Z,10.85
2022-11-09T00:27:30.503Z,10.98
2022-11-09T00:27:42.506Z,10.90
2022-11-09T00:27:54.439Z,11.52
2022-11-09T00:28:06.427Z,10.35
2022-11-09T00:28:18.355Z,9.02
2022-11-09T00:28:30.347Z,8.15
2022-11-09T00:28:42.294Z,9.15
2022-11-09T00:28:54.308Z,9.50
2022-11-09T00:29:06.411Z,10.02
2022-11-09T00:29:18.353Z,9.63
2022-11-09T00:29:30.334Z,8.85
2022-11-09T00:29:42.337Z,7.15
2022-11-09T00:29:54.255Z,7.10
2022-11-09T00:30:07.023Z,7.50
2022-11-09T00:30:19.033Z,8.05
2022-11-09T00:30:31.425Z,8.18
2022-11-09T00:30:43.437Z,8.02
2022-11-09T00:31:05.841Z,8.35
2022-11-09T00:31:20.571Z,6.53
2022-11-09T00:31:32.562Z,6.03
2022-11-09T00:31:44.484Z,5.97
2022-11-09T00:31:56.393Z,6.85
2022-11-09T00:32:08.312Z,6.82
2022-11-09T00:32:25.220Z,7.75
2022-11-09T00:32:39.636Z,7.05
2022-11-09T00:32:51.567Z,6.00
2022-11-09T00:33:03.555Z,5.90
2022-11-09T00:33:15.528Z,5.70
2022-11-09T00:33:27.692Z,6.17
2022-11-09T00:33:39.685Z,6.35
2022-11-09T00:33:54.203Z,6.22
2022-11-09T00:34:06.106Z,6.50
2022-11-09T00:34:18.029Z,5.95
2022-11-09T00:34:29.936Z,5.47
2022-11-09T00:34:41.937Z,5.68
2022-11-09T00:34:53.845Z,6.50
2022-11-09T00:35:06.168Z,6.32
2022-11-09T00:35:18.064Z,6.90
2022-11-09T00:35:30.040Z,6.60
2022-11-09T00:35:41.958Z,5.93
2022-11-09T00:35:54.786Z,6.82
2022-11-09T00:36:10.302Z,6.43
2022-11-09T00:36:24.250Z,4.93
2022-11-09T00:36:36.185Z,5.68
2022-11-09T00:36:48.100Z,6.68
2022-11-09T00:36:59.986Z,6.20
2022-11-09T00:37:11.957Z,5.43
2022-11-09T00:37:24.156Z,6.07
2022-11-09T00:37:36.209Z,7.13
2022-11-09T00:37:48.222Z,7.07
2022-11-09T00:38:00.276Z,7.68
2022-11-09T00:38:12.235Z,6.57
2022-11-09T00:38:24.243Z,6.53
2022-11-09T00:38:37.382Z,5.32
2022-11-09T00:38:52.482Z,5.22
2022-11-09T00:39:04.535Z,6.55
2022-11-09T00:39:16.537Z,7.35
2022-11-09T00:39:28.452Z,7.88
2022-11-09T00:39:40.354Z,7.40
2022-11-09T00:39:52.245Z,7.10
2022-11-09T00:40:04.528Z,7.45
2022-11-09T00:40:16.642Z,8.30
2022-11-09T00:40:28.546Z,9.13
2022-11-09T00:40:40.471Z,8.77
2022-11-09T00:40:52.462Z,7.13
2022-11-09T00:41:05.594Z,8.13
2022-11-09T00:41:17.789Z,8.63
2022-11-09T00:41:29.693Z,8.50
2022-11-09T00:41:41.656Z,8.73
2022-11-09T00:41:53.581Z,8.77
2022-11-09T00:42:07.231Z,9.02
2022-11-09T00:42:19.144Z,7.60
2022-11-09T00:42:31.069Z,8.48
2022-11-09T00:42:42.986Z,8.52
2022-11-09T00:42:54.901Z,7.13
2022-11-09T00:43:06.804Z,7.00
2022-11-09T00:43:19.192Z,7.70
2022-11-09T00:43:31.322Z,8.07
2022-11-09T00:43:43.215Z,7.70
2022-11-09T00:43:55.354Z,6.80
2022-11-09T00:44:07.541Z,7.10
2022-11-09T00:44:19.556Z,7.47
2022-11-09T00:44:31.539Z,7.47
2022-11-09T00:44:43.435Z,7.18
2022-11-09T00:44:55.396Z,6.05
2022-11-09T00:45:07.808Z,6.53
2022-11-09T00:45:20.300Z,6.85
2022-11-09T00:45:32.247Z,7.47
2022-11-09T00:45:44.215Z,6.85
2022-11-09T00:45:56.203Z,5.85
2022-11-09T00:46:08.730Z,6.57
2022-11-09T00:46:21.006Z,7.32
2022-11-09T00:46:33.290Z,7.75
2022-11-09T00:46:45.474Z,9.30
2022-11-09T00:46:57.407Z,8.97
2022-11-09T00:47:09.321Z,8.02
2022-11-09T00:47:21.227Z,7.28
2022-11-09T00:47:33.204Z,7.65
2022-11-09T00:47:45.096Z,8.38
2022-11-09T00:47:57.012Z,7.03
2022-11-09T00:48:09.207Z,7.22
2022-11-09T00:48:21.503Z,7.15
2022-11-09T00:48:34.067Z,6.88
2022-11-09T00:48:46.504Z,6.95
2022-11-09T00:48:58.499Z,7.30
2022-11-09T00:49:10.391Z,7.18
2022-11-09T00:49:22.338Z,6.82
2022-11-09T00:49:34.355Z,6.50
2022-11-09T00:49:46.292Z,7.03
2022-11-09T00:49:58.225Z,6.40
2022-11-09T00:50:10.293Z,7.28
2022-11-09T00:50:22.186Z,7.20
2022-11-09T00:50:34.163Z,7.18
2022-11-09T00:50:53.096Z,6.00
2022-11-09T00:51:05.630Z,6.05
2022-11-09T00:51:18.484Z,6.85
2022-11-09T00:51:30.378Z,6.93
2022-11-09T00:51:42.296Z,7.70
2022-11-09T00:51:54.534Z,7.07
2022-11-09T00:52:06.460Z,6.10
2022-11-09T00:52:18.356Z,5.82
2022-11-09T00:52:30.279Z,6.03
2022-11-09T00:52:42.803Z,7.32
2022-11-09T00:52:54.708Z,8.43
2022-11-09T00:53:06.645Z,8.32
2022-11-09T00:53:19.783Z,8.43
2022-11-09T00:53:32.716Z,8.13
2022-11-09T00:53:48.125Z,8.23
2022-11-09T00:54:00.013Z,7.55
2022-11-09T00:54:12.148Z,6.78
2022-11-09T00:54:24.209Z,6.72
2022-11-09T00:54:36.352Z,6.63
2022-11-09T00:54:48.252Z,7.10
2022-11-09T00:55:00.185Z,7.18
2022-11-09T00:55:12.104Z,7.10
2022-11-09T00:55:24.475Z,7.10
2022-11-09T00:55:36.417Z,7.20
2022-11-09T00:56:01.817Z,7.28
2022-11-09T00:56:14.454Z,7.25
2022-11-09T00:56:26.351Z,6.45
2022-11-09T00:56:38.314Z,6.88
2022-11-09T00:56:50.232Z,7.22
2022-11-09T00:57:02.201Z,7.82
2022-11-09T00:57:14.174Z,8.90
2022-11-09T00:57:26.055Z,8.90
2022-11-09T00:57:38.009Z,7.82
2022-11-09T00:57:50.796Z,6.43
2022-11-09T00:58:02.695Z,6.55
2022-11-09T00:58:14.576Z,8.00
2022-11-09T00:58:28.399Z,8.80
2022-11-09T00:58:41.042Z,8.23
2022-11-09T00:58:55.545Z,6.38
2022-11-09T00:59:10.607Z,6.35
2022-11-09T00:59:22.533Z,7.63
2022-11-09T00:59:34.441Z,7.18
2022-11-09T00:59:46.468Z,7.07
2022-11-09T00:59:58.368Z,7.45
2022-11-09T01:00:11.195Z,7.13
2022-11-09T01:00:25.738Z,7.45
2022-11-09T01:00:37.633Z,7.13
2022-11-09T01:00:49.906Z,6.10
2022-11-09T01:01:13.751Z,6.35
2022-11-09T01:01:25.910Z,8.02
2022-11-09T01:01:38.038Z,8.02
2022-11-09T01:01:50.066Z,6.65
2022-11-09T01:02:02.005Z,7.47
2022-11-09T01:02:13.919Z,6.88
2022-11-09T01:02:25.909Z,7.07
2022-11-09T01:02:37.817Z,7.32
2022-11-09T01:02:50.280Z,6.68
2022-11-09T01:03:02.187Z,6.47
2022-11-09T01:03:14.153Z,7.47
2022-11-09T01:03:27.097Z,6.40
2022-11-09T01:03:39.493Z,5.97
2022-11-09T01:03:51.790Z,6.38
2022-11-09T01:04:03.701Z,7.03
2022-11-09T01:04:15.599Z,6.30
2022-11-09T01:04:27.823Z,6.22
2022-11-09T01:04:39.740Z,5.32
2022-11-09T01:04:51.631Z,5.78
2022-11-09T01:05:03.869Z,6.47
2022-11-09T01:05:15.963Z,7.07
2022-11-09T01:05:27.902Z,5.82
2022-11-09T01:05:39.861Z,4.90
2022-11-09T01:05:52.516Z,4.82
2022-11-09T01:06:05.249Z,4.60
2022-11-09T01:06:25.544Z,5.43
2022-11-09T01:06:37.536Z,7.70
2022-11-09T01:06:49.653Z,6.90
2022-11-09T01:07:01.639Z,5.82
2022-11-09T01:07:13.600Z,5.72
2022-11-09T01:07:25.731Z,5.88
2022-11-09T01:07:38.171Z,5.47
2022-11-09T01:07:50.208Z,5.05
2022-11-09T01:08:02.271Z,5.50
2022-11-09T01:08:14.581Z,6.05
2022-11-09T01:08:26.570Z,5.22
2022-11-09T01:08:38.591Z,4.75
2022-11-09T01:08:50.980Z,4.35
2022-11-09T01:09:03.014Z,4.43
2022-11-09T01:09:14.916Z,5.03
2022-11-09T01:09:26.873Z,6.10
2022-11-09T01:09:39.061Z,6.57
2022-11-09T01:09:51.064Z,6.15
2022-11-09T01:10:04.033Z,6.82
2022-11-09T01:10:15.980Z,7.72
2022-11-09T01:10:27.900Z,6.78
2022-11-09T01:10:42.647Z,5.75
2022-11-09T01:10:54.575Z,5.45
2022-11-09T01:11:09.253Z,6.57
2022-11-09T01:11:22.609Z,6.65
2022-11-09T01:11:34.580Z,8.05
2022-11-09T01:11:46.553Z,8.90
2022-11-09T01:11:58.525Z,8.60
2022-11-09T01:12:10.447Z,6.43
2022-11-09T01:12:22.358Z,6.70
2022-11-09T01:12:34.594Z,6.63
2022-11-09T01:12:46.579Z,5.53
2022-11-09T01:12:58.525Z,4.80
2022-11-09T01:13:12.519Z,4.10
2022-11-09T01:13:24.421Z,4.10
2022-11-09T01:13:37.629Z,4.60
2022-11-09T01:13:49.807Z,6.68
2022-11-09T01:14:02.176Z,6.65
2022-11-09T01:14:14.091Z,6.97
2022-11-09T01:14:26.095Z,5.03
2022-11-09T01:14:38.025Z,5.00
2022-11-09T01:14:49.963Z,6.88
2022-11-09T01:15:01.865Z,6.93
2022-11-09T01:15:13.886Z,6.55
2022-11-09T01:15:26.222Z,6.03
2022-11-09T01:15:48.254Z,6.07
2022-11-09T01:16:00.310Z,5.65
2022-11-09T01:16:17.430Z,6.45
2022-11-09T01:16:29.404Z,8.10
2022-11-09T01:16:41.335Z,8.93
2022-11-09T01:16:53.281Z,8.32
2022-11-09T01:17:05.239Z,5.97
2022-11-09T01:17:17.195Z,6.47
2022-11-09T01:17:29.117Z,6.10
2022-11-09T01:17:41.099Z,6.03
2022-11-09T01:17:53.024Z,5.80
2022-11-09T01:18:05.025Z,6.03
2022-11-09T01:18:19.784Z,5.40
2022-11-09T01:18:31.806Z,5.25
2022-11-09T01:18:44.138Z,5.45
2022-11-09T01:18:57.811Z,5.43
2022-11-09T01:19:09.846Z,5.22
2022-11-09T01:19:21.786Z,5.35
2022-11-09T01:19:33.693Z,5.13
2022-11-09T01:19:45.604Z,5.40
2022-11-09T01:19:57.512Z,6.72
2022-11-09T01:20:10.157Z,6.30
2022-11-09T01:20:22.092Z,5.68
2022-11-09T01:20:34.026Z,5.72
2022-11-09T01:20:49.082Z,5.70
2022-11-09T01:21:03.445Z,5.65
2022-11-09T01:21:15.885Z,6.65
2022-11-09T01:21:29.550Z,7.35
2022-11-09T01:21:41.574Z,7.10
2022-11-09T01:21:53.512Z,6.53
2022-11-09T01:22:05.447Z,6.00
2022-11-09T01:22:19.070Z,6.35
2022-11-09T01:22:31.033Z,6.20
2022-11-09T01:22:43.159Z,6.28
2022-11-09T01:22:55.087Z,4.15
2022-11-09T01:23:08.146Z,4.28
2022-11-09T01:23:21.423Z,4.78
2022-11-09T01:23:34.356Z,5.43
2022-11-09T01:23:46.400Z,5.70
2022-11-09T01:23:58.916Z,5.65
2022-11-09T01:24:10.844Z,6.00
2022-11-09T01:24:22.879Z,5.60
2022-11-09T01:24:34.787Z,5.35
2022-11-09T01:24:46.748Z,5.80
2022-11-09T01:24:58.668Z,6.00
2022-11-09T01:25:10.586Z,5.38
2022-11-09T01:25:22.547Z,5.60
2022-11-09T01:25:34.756Z,5.78
2022-11-09T01:25:46.716Z,7.40
2022-11-09T01:26:00.764Z,7.00
2022-11-09T01:26:14.381Z,6.40
2022-11-09T01:26:26.429Z,5.30
2022-11-09T01:26:38.346Z,6.28
2022-11-09T01:26:50.280Z,5.70
2022-11-09T01:27:02.206Z,4.93
2022-11-09T01:27:14.190Z,6.30
2022-11-09T01:27:26.144Z,6.10
2022-11-09T01:27:38.080Z,5.65
2022-11-09T01:27:49.981Z,5.25
2022-11-09T01:28:02.186Z,5.32
2022-11-09T01:28:14.147Z,5.03
2022-11-09T01:28:26.407Z,5.50
2022-11-09T01:28:38.625Z,5.63
2022-11-09T01:28:50.568Z,5.55
2022-11-09T01:29:02.715Z,5.03
2022-11-09T01:29:14.651Z,4.72
2022-11-09T01:29:26.621Z,4.72
2022-11-09T01:29:38.603Z,4.78
2022-11-09T01:29:50.509Z,4.68
2022-11-09T01:30:02.852Z,5.32
2022-11-09T01:30:14.773Z,5.97
2022-11-09T01:30:26.732Z,5.57
2022-11-09T01:30:41.652Z,5.28
2022-11-09T01:30:54.072Z,4.45
2022-11-09T01:31:12.145Z,4.32
2022-11-09T01:31:24.132Z,5.50
2022-11-09T01:31:36.052Z,6.55
2022-11-09T01:31:48.905Z,5.75
2022-11-09T01:32:00.807Z,5.25
2022-11-09T01:32:12.712Z,5.50
2022-11-09T01:32:24.638Z,5.40
2022-11-09T01:32:36.553Z,6.10
2022-11-09T01:32:48.465Z,6.15
2022-11-09T01:33:00.414Z,6.63
2022-11-09T01:33:12.499Z,6.65
2022-11-09T01:33:24.416Z,6.00
2022-11-09T01:33:37.042Z,5.15
2022-11-09T01:33:49.104Z,4.80
2022-11-09T01:34:00.995Z,4.78
2022-11-09T01:34:13.008Z,5.45
2022-11-09T01:34:24.937Z,5.55
2022-11-09T01:34:36.917Z,5.43
2022-11-09T01:34:48.825Z,4.70
2022-11-09T01:35:00.795Z,6.18
2022-11-09T01:35:12.744Z,7.65
2022-11-09T01:35:24.652Z,7.32
2022-11-09T01:35:38.365Z,5.95
2022-11-09T01:35:50.300Z,5.35
2022-11-09T01:36:07.466Z,5.43
2022-11-09T01:36:22.290Z,5.57
2022-11-09T01:36:34.220Z,5.30
2022-11-09T01:36:46.147Z,5.10
2022-11-09T01:36:59.152Z,5.82
2022-11-09T01:37:11.061Z,6.10
2022-11-09T01:37:23.296Z,6.78
2022-11-09T01:37:35.226Z,7.32
2022-11-09T01:37:47.165Z,8.43
2022-11-09T01:37:59.114Z,7.13
2022-11-09T01:38:11.085Z,6.63
2022-11-09T01:38:23.065Z,5.63
2022-11-09T01:38:38.266Z,6.68
2022-11-09T01:38:50.892Z,7.57
2022-11-09T01:39:02.887Z,7.50
2022-11-09T01:39:14.820Z,6.75
2022-11-09T01:39:26.765Z,7.88
2022-11-09T01:39:38.680Z,8.43
2022-11-09T01:39:50.600Z,9.63
2022-11-09T01:40:02.617Z,7.82
2022-11-09T01:40:14.770Z,7.28
2022-11-09T01:40:28.325Z,6.97
2022-11-09T01:40:40.657Z,5.07
2022-11-09T01:40:52.555Z,5.70
2022-11-09T01:41:06.140Z,5.93
2022-11-09T01:41:19.878Z,5.53
2022-11-09T01:41:31.800Z,5.80
2022-11-09T01:41:43.751Z,5.93
2022-11-09T01:41:55.685Z,6.15
2022-11-09T01:42:07.593Z,6.45
2022-11-09T01:42:26.388Z,6.38
2022-11-09T01:42:39.117Z,5.57
2022-11-09T01:42:51.041Z,5.22
2022-11-09T01:43:15.123Z,5.75
2022-11-09T01:43:27.358Z,6.90
2022-11-09T01:43:39.414Z,6.57
2022-11-09T01:44:03.404Z,5.13
2022-11-09T01:44:19.578Z,6.53
2022-11-09T01:44:32.096Z,8.27
2022-11-09T01:44:44.014Z,7.32
2022-11-09T01:45:17.558Z,6.15
2022-11-09T01:45:30.991Z,5.90
2022-11-09T01:45:48.641Z,7.07
2022-11-09T01:46:05.543Z,6.57
2022-11-09T01:46:24.886Z,6.68
2022-11-09T01:46:45.418Z,6.00
2022-11-09T01:47:03.389Z,5.03
2022-11-09T01:47:24.799Z,6.18
2022-11-09T01:47:36.720Z,5.30
2022-11-09T01:47:58.637Z,5.63
2022-11-09T01:48:18.324Z,6.45
2022-11-09T01:48:47.867Z,5.60
2022-11-09T01:49:05.303Z,5.68
2022-11-09T01:49:40.835Z,6.60
2022-11-09T01:49:56.571Z,4.88
2022-11-09T01:50:11.780Z,5.68
2022-11-09T01:50:32.376Z,6.40
2022-11-09T01:51:19.989Z,6.57
2022-11-09T01:51:38.178Z,4.70
2022-11-09T01:51:56.189Z,4.75
2022-11-09T01:52:13.962Z,5.78
2022-11-09T01:52:32.322Z,5.75
2022-11-09T01:52:48.105Z,4.95
2022-11-09T01:53:03.900Z,4.80
2022-11-09T01:53:20.957Z,5.63
2022-11-09T01:53:36.895Z,6.95
2022-11-09T01:53:52.920Z,6.93
2022-11-09T01:54:30.191Z,6.45
2022-11-09T01:54:45.976Z,5.32
2022-11-09T01:55:03.122Z,4.70
2022-11-09T01:55:23.112Z,6.28
2022-11-09T01:55:36.000Z,5.38
2022-11-09T01:55:52.834Z,5.40
2022-11-09T01:56:09.050Z,6.40
2022-11-09T01:56:21.017Z,6.10
2022-11-09T01:56:33.380Z,6.07
2022-11-09T01:56:48.420Z,6.90
2022-11-09T01:57:05.889Z,6.43
2022-11-09T01:57:41.237Z,5.82
2022-11-09T01:58:27.709Z,5.32
2022-11-09T01:59:51.590Z,5.32
2022-11-09T02:00:07.953Z,5.55
2022-11-09T02:00:20.403Z,5.45
2022-11-09T02:00:34.700Z,5.43
2022-11-09T02:00:50.121Z,4.88
2022-11-09T02:01:02.945Z,4.35
2022-11-09T02:01:17.650Z,4.60
2022-11-09T02:01:31.328Z,4.78
2022-11-09T02:01:44.046Z,6.35
2022-11-09T02:01:56.756Z,7.30
2022-11-09T02:02:09.260Z,7.32
2022-11-09T02:02:21.832Z,7.05
2022-11-09T02:02:35.281Z,5.95
2022-11-09T02:03:02.604Z,7.55
2022-11-09T02:03:30.977Z,7.25
2022-11-09T02:03:54.077Z,5.07
2022-11-09T02:04:11.764Z,6.22
2022-11-09T02:04:30.416Z,6.05
2022-11-09T02:04:55.461Z,5.32
2022-11-09T02:05:12.408Z,4.97
2022-11-09T02:05:28.065Z,5.15
2022-11-09T02:05:41.771Z,4.80
2022-11-09T02:05:54.031Z,4.75
2022-11-09T02:06:10.086Z,4.78
2022-11-09T02:06:25.549Z,4.65
2022-11-09T02:06:37.720Z,4.65
2022-11-09T02:06:50.650Z,4.72
2022-11-09T02:07:03.076Z,4.85
2022-11-09T02:07:15.282Z,5.10
2022-11-09T02:07:27.808Z,4.47
2022-11-09T02:07:41.370Z,4.45
2022-11-09T02:07:55.177Z,5.07
2022-11-09T02:08:08.858Z,4.90
2022-11-09T02:08:25.073Z,5.32
2022-11-09T02:08:37.454Z,5.47
2022-11-09T02:08:49.567Z,4.82
2022-11-09T02:09:10.010Z,5.47
2022-11-09T02:09:51.464Z,5.25
2022-11-09T02:10:14.829Z,5.57
2022-11-09T02:10:35.619Z,5.63
2022-11-09T02:11:07.434Z,5.55
2022-11-09T02:11:20.941Z,7.70
2022-11-09T02:11:34.697Z,7.65
2022-11-09T02:11:46.652Z,7.05
2022-11-09T02:11:59.382Z,6.70
2022-11-09T02:12:11.441Z,6.07
2022-11-09T02:12:25.258Z,4.72
2022-11-09T02:12:37.370Z,5.85
2022-11-09T02:12:49.941Z,7.65
2022-11-09T02:13:03.372Z,7.40
2022-11-09T02:13:19.017Z,5.75
2022-11-09T02:13:33.121Z,5.97
2022-11-09T02:13:51.703Z,5.72
2022-11-09T02:14:06.428Z,5.97
2022-11-09T02:14:20.666Z,7.38
2022-11-09T02:14:33.897Z,6.88
2022-11-09T02:14:49.213Z,5.82
2022-11-09T02:15:05.358Z,5.40
2022-11-09T02:15:17.361Z,5.93
2022-11-09T02:15:29.970Z,6.03
2022-11-09T02:15:45.688Z,6.40
2022-11-09T02:15:58.977Z,6.60
2022-11-09T02:16:13.299Z,6.07
2022-11-09T02:16:26.516Z,5.40
2022-11-09T02:16:40.246Z,4.53
2022-11-09T02:16:52.326Z,4.28
2022-11-09T02:17:05.103Z,5.50
2022-11-09T02:17:18.641Z,5.90
2022-11-09T02:17:31.037Z,6.43
2022-11-09T02:17:44.183Z,7.82
2022-11-09T02:17:58.197Z,7.55
2022-11-09T02:18:10.900Z,7.25
2022-11-09T02:18:23.063Z,7.60
2022-11-09T02:18:36.580Z,6.63
2022-11-09T02:18:56.528Z,5.63
2022-11-09T02:19:08.515Z,5.28
2022-11-09T02:19:20.438Z,5.10
2022-11-09T02:19:32.351Z,5.45
2022-11-09T02:19:44.261Z,5.22
2022-11-09T02:19:58.637Z,4.65
2022-11-09T02:20:15.478Z,4.97
2022-11-09T02:20:28.405Z,6.07
2022-11-09T02:20:49.476Z,5.85
2022-11-09T02:21:01.559Z,5.55
2022-11-09T02:21:13.505Z,5.20
2022-11-09T02:21:28.396Z,4.75
2022-11-09T02:21:40.389Z,4.45
2022-11-09T02:21:52.334Z,4.53
2022-11-09T02:22:04.391Z,4.40
2022-11-09T02:22:16.701Z,4.63
2022-11-09T02:22:28.606Z,4.93
2022-11-09T02:22:41.611Z,4.90
2022-11-09T02:22:53.585Z,5.43
2022-11-09T02:23:05.542Z,5.35
2022-11-09T02:23:19.268Z,5.32
2022-11-09T02:23:31.468Z,4.93
2022-11-09T02:23:43.435Z,4.57
2022-11-09T02:23:55.944Z,4.35
2022-11-09T02:24:08.040Z,5.63
2022-11-09T02:24:20.043Z,6.80
2022-11-09T02:24:33.107Z,7.07
2022-11-09T02:24:45.277Z,7.20
2022-11-09T02:24:57.194Z,6.97
2022-11-09T02:25:10.445Z,6.47
2022-11-09T02:25:22.468Z,6.72
2022-11-09T02:25:34.369Z,7.72
2022-11-09T02:25:54.008Z,9.30
2022-11-09T02:26:10.690Z,7.97
2022-11-09T02:26:25.078Z,6.07
2022-11-09T02:26:47.614Z,4.93
2022-11-09T02:26:59.872Z,5.72
2022-11-09T02:27:11.814Z,6.07
2022-11-09T02:27:24.352Z,6.30
2022-11-09T02:27:37.602Z,6.43
2022-11-09T02:27:50.139Z,6.88
2022-11-09T02:28:02.155Z,6.23
2022-11-09T02:28:16.289Z,5.73
2022-11-09T02:28:28.881Z,5.47
2022-11-09T02:28:42.303Z,6.05
2022-11-09T02:28:56.204Z,7.18
2022-11-09T02:29:12.066Z,6.90
2022-11-09T02:29:28.420Z,6.22
2022-11-09T02:29:46.513Z,8.23
2022-11-09T02:30:00.036Z,6.55
2022-11-09T02:30:13.530Z,5.45
2022-11-09T02:30:25.707Z,5.80
2022-11-09T02:30:38.894Z,5.88
2022-11-09T02:30:53.604Z,5.63
2022-11-09T02:31:08.297Z,6.18
2022-11-09T02:31:22.463Z,6.63
2022-11-09T02:31:38.679Z,7.40
2022-11-09T02:32:02.374Z,6.45
2022-11-09T02:32:20.893Z,6.30
2022-11-09T02:32:33.197Z,6.78
2022-11-09T02:32:45.096Z,5.38
2022-11-09T02:32:57.003Z,5.10
2022-11-09T02:33:08.903Z,4.60
2022-11-09T02:33:21.677Z,4.90
2022-11-09T02:34:11.798Z,5.20
2022-11-09T02:34:24.735Z,5.28
2022-11-09T02:34:36.712Z,6.38
2022-11-09T02:34:48.665Z,5.68
2022-11-09T02:35:00.634Z,4.67
2022-11-09T02:35:13.451Z,4.57
2022-11-09T02:35:25.354Z,5.18
2022-11-09T02:35:37.308Z,5.20
2022-11-09T02:35:49.309Z,4.68
2022-11-09T02:36:01.232Z,4.78
2022-11-09T02:36:13.169Z,4.57
2022-11-09T02:36:25.353Z,4.60
2022-11-09T02:36:37.400Z,5.20
2022-11-09T02:36:49.346Z,4.95
2022-11-09T02:37:01.291Z,5.43
2022-11-09T02:37:13.240Z,5.03
2022-11-09T02:37:27.974Z,4.30
2022-11-09T02:37:49.885Z,4.85
2022-11-09T02:38:01.889Z,5.78
2022-11-09T02:38:15.191Z,5.03
2022-11-09T02:38:27.103Z,4.50
2022-11-09T02:38:39.012Z,5.72
2022-11-09T02:38:54.535Z,5.75
2022-11-09T02:39:06.891Z,6.88
2022-11-09T02:39:23.040Z,6.95
2022-11-09T02:39:35.258Z,5.72
2022-11-09T02:39:47.228Z,5.53
2022-11-09T02:40:01.387Z,6.25
2022-11-09T02:40:19.329Z,6.15
2022-11-09T02:40:36.509Z,5.88
2022-11-09T02:40:51.386Z,6.07
2022-11-09T02:41:03.766Z,5.95
2022-11-09T02:41:16.448Z,6.22
2022-11-09T02:41:31.782Z,6.35
2022-11-09T02:41:52.115Z,7.07
2022-11-09T02:42:19.934Z,6.43
2022-11-09T02:42:33.693Z,7.40
2022-11-09T02:42:45.804Z,8.50
2022-11-09T02:42:57.812Z,7.00
2022-11-09T02:43:11.983Z,5.60
2022-11-09T02:43:24.194Z,5.22
2022-11-09T02:43:36.817Z,5.22
2022-11-09T02:43:51.479Z,4.40
2022-11-09T02:44:03.527Z,4.47
2022-11-09T02:44:16.532Z,5.32
2022-11-09T02:44:30.237Z,4.88
2022-11-09T02:44:47.804Z,4.57
2022-11-09T02:45:00.222Z,5.47
2022-11-09T02:45:12.469Z,5.57
2022-11-09T02:45:24.426Z,5.53
2022-11-09T02:45:37.173Z,5.27
2022-11-09T02:45:49.168Z,5.75
2022-11-09T02:46:01.183Z,5.70
2022-11-09T02:46:13.096Z,5.05
2022-11-09T02:46:34.229Z,6.10
2022-11-09T02:46:46.526Z,5.95
2022-11-09T02:46:58.456Z,5.53
2022-11-09T02:47:10.458Z,6.18
2022-11-09T02:47:22.438Z,6.38
2022-11-09T02:47:34.418Z,5.53
2022-11-09T02:47:46.354Z,5.28
2022-11-09T02:47:58.348Z,5.90
2022-11-09T02:48:10.276Z,7.25
2022-11-09T02:48:22.159Z,7.15
2022-11-09T02:48:34.089Z,6.82
2022-11-09T02:48:46.000Z,5.82
2022-11-09T02:48:57.909Z,5.40
2022-11-09T02:49:09.933Z,5.50
2022-11-09T02:49:21.923Z,4.65
2022-11-09T02:49:33.902Z,5.45
2022-11-09T02:49:45.884Z,5.47
2022-11-09T02:49:57.947Z,5.40
2022-11-09T02:50:10.361Z,5.40
2022-11-09T02:50:22.339Z,6.80
2022-11-09T02:50:36.107Z,6.35
2022-11-09T02:50:48.001Z,5.28
2022-11-09T02:50:59.895Z,4.85
2022-11-09T02:51:11.812Z,5.25
2022-11-09T02:51:23.732Z,5.65
2022-11-09T02:51:35.733Z,6.72
2022-11-09T02:51:47.648Z,7.35
2022-11-09T02:51:59.561Z,6.22
2022-11-09T02:52:11.487Z,6.28
2022-11-09T02:52:24.023Z,6.88
2022-11-09T02:52:35.996Z,7.85
2022-11-09T02:52:48.005Z,9.77
2022-11-09T02:52:59.928Z,9.95
2022-11-09T02:53:11.841Z,9.98
2022-11-09T02:53:23.823Z,7.68
2022-11-09T02:53:35.836Z,6.68
2022-11-09T02:53:47.808Z,7.68
2022-11-09T02:53:59.733Z,7.45
2022-11-09T02:54:11.714Z,6.22
2022-11-09T02:54:23.777Z,5.45
2022-11-09T02:54:35.806Z,6.40
2022-11-09T02:54:47.740Z,6.70
2022-11-09T02:54:59.679Z,6.88
2022-11-09T02:55:11.709Z,7.13
2022-11-09T02:55:23.664Z,6.57
2022-11-09T02:55:35.883Z,6.95
2022-11-09T02:55:47.791Z,8.23
2022-11-09T02:55:59.736Z,8.43
2022-11-09T02:56:11.666Z,7.40
2022-11-09T02:56:24.068Z,6.82
2022-11-09T02:56:36.101Z,6.35
2022-11-09T02:56:48.175Z,5.05
2022-11-09T02:57:00.211Z,5.47
2022-11-09T02:57:12.172Z,6.43
2022-11-09T02:57:24.101Z,6.82
2022-11-09T02:57:36.091Z,7.07
2022-11-09T02:57:48.080Z,7.00
2022-11-09T02:58:00.067Z,7.13
2022-11-09T02:58:12.056Z,6.57
2022-11-09T02:58:23.996Z,5.82
2022-11-09T02:58:35.892Z,6.45
2022-11-09T02:58:47.839Z,6.95
2022-11-09T02:58:59.790Z,6.82
2022-11-09T02:59:11.703Z,6.40
2022-11-09T02:59:23.655Z,5.95
2022-11-09T02:59:35.595Z,5.82